Flight Track Log - Related Links

Times and Time Zones

All times are in EDT time to prevent confusion due to time zone crossing. See the GLA182 flight status page for this flight to view local times or setup timezone preferences in your user account.

Time Position Orientation Groundspeed Altitude Reporting Facility
EDT Latitude Longitude Course Direction KTS MPH feet Rate Location/Type
Wed 09:00:45 AM 44.9167 -93.2833 270° West 164 189 3,500  Level Minneapolis TRACON
Wed 09:01:00 AM 44.9225 -93.2883 329° Northwest 162 186 3,800 1,421 Climbing Minneapolis Center
Wed 09:02:01 AM 44.9453 -93.3486 298° West 174 200 5,300 1,525 Climbing Minneapolis Center
Wed 09:03:02 AM 44.9722 -93.4144 300° West 192 221 6,900 1,574 Climbing Minneapolis Center
Wed 09:04:03 AM 44.9961 -93.4828 296° West 195 224 8,500 1,512 Climbing Minneapolis Center
Wed 09:05:05 AM 45.0003 -93.5581 275° West 194 223 10,000 1,366 Climbing Minneapolis Center
Wed 09:06:00 AM 45.1334 -93.4506 270° West  Level FlightAware Approximate
Wed 09:06:06 AM 45.0100 -93.6383 280° West 209 241 11,300  Level Minneapolis Center
Wed 09:07:07 AM 45.0214 -93.7250 281° West 229 264 11,900 344 Climbing Minneapolis Center
Wed 09:08:08 AM 45.0339 -93.8431 279° West 255 293 12,000 49 Climbing Minneapolis Center
Wed 09:09:10 AM 45.0442 -93.9442 278° West 261 300 12,000 244 Level Minneapolis Center
Wed 09:10:11 AM 45.0525 -94.0461 277° West 262 302 12,500 1,082 Climbing Minneapolis Center
Wed 09:11:12 AM 45.0644 -94.1353 281° West 229 264 14,200 1,672 Climbing Minneapolis Center
Wed 09:12:13 AM 45.0781 -94.2142 284° West 205 236 15,900 927 Climbing Minneapolis Center
Wed 09:13:15 AM 45.0981 -94.2975 289° West 228 262 16,100 98 Climbing Minneapolis Center
Wed 09:14:16 AM 45.1017 -94.3847 273° West 222 255 16,100  Level Minneapolis Center
Wed 09:15:30 AM 45.0925 -94.4908 263° West 228 262 16,100  Level Minneapolis Center
Wed 09:16:31 AM 45.0822 -94.5986 262° West 233 268 16,100  Level Minneapolis Center
Wed 09:17:32 AM 45.0789 -94.6858 267° West 236 272 16,100  Level Minneapolis Center
Wed 09:18:33 AM 45.0756 -94.7797 267° West 239 275 16,100  Level Minneapolis Center
Wed 09:19:35 AM 45.0722 -94.8756 267° West 243 280 16,100  Level Minneapolis Center
Wed 09:20:36 AM 45.0714 -94.9706 269° West 243 280 16,100  Level Minneapolis Center
Wed 09:21:37 AM 45.0628 -95.0803 264° West 238 274 16,100  Level Minneapolis Center
Wed 09:22:39 AM 45.0533 -95.1714 262° West 236 272 16,100  Level Minneapolis Center
Wed 09:23:40 AM 45.0486 -95.2656 266° West 240 276 16,100 -49 Level Minneapolis Center
Wed 09:24:41 AM 45.0408 -95.3583 263° West 239 275 16,000 -49 Descending Minneapolis Center
Wed 09:25:43 AM 45.0364 -95.4519 266° West 239 275 16,000 49 Level Minneapolis Center
Wed 09:26:44 AM 45.0331 -95.5467 267° West 241 277 16,100  Climbing Minneapolis Center
Wed 09:27:45 AM 45.0306 -95.6422 268° West 243 280 16,000 -49 Descending Minneapolis Center
Wed 09:28:47 AM 45.0267 -95.7369 267° West 244 281 16,000 49 Level Minneapolis Center
Wed 09:29:48 AM 45.0217 -95.8144 265° West 246 283 16,100 -639 Climbing Minneapolis Center
Wed 09:30:49 AM 45.0167 -95.9478 267° West 244 281 14,700 -1,328 Descending Minneapolis Center
Wed 09:31:50 AM 45.0139 -96.0408 268° West 241 277 13,400 -1,328 Descending Minneapolis Center
Wed 09:32:51 AM 45.0097 -96.1119 265° West 235 270 12,000 -1,463 Descending Minneapolis Center
Wed 09:33:53 AM 44.9964 -96.2258 261° West 242 278 10,400 -1,122 Descending Minneapolis Center
Wed 09:34:54 AM 44.9886 -96.3208 263° West 245 282 9,700 -683 Descending Minneapolis Center
Wed 09:35:56 AM 44.9811 -96.4158 264° West 244 281 9,000 -732 Descending Minneapolis Center
Wed 09:36:57 AM 44.9767 -96.5142 266° West 247 284 8,200 -984 Descending Minneapolis Center
Wed 09:37:58 AM 44.9769 -96.6094 270° West 247 284 7,000 -1,171 Descending Minneapolis Center
Wed 09:39:00 AM 44.9772 -96.7197 270° West 242 278 5,800 -878 Descending Minneapolis Center
Wed 09:40:01 AM 44.9658 -96.8044 259° West 230 265 5,200 -541 Descending Minneapolis Center
Wed 09:41:02 AM 44.9539 -96.8944 259° West 230 265 4,700 -488 Descending Minneapolis Center
Wed 09:42:04 AM 44.9425 -96.9872 260° West 234 269 4,200 -537 Descending Minneapolis Center
Wed 09:43:05 AM 44.9294 -97.0769 258° West 236 272 3,600 -590 Descending Minneapolis Center
Wed 09:45:00 AM 44.9000 -97.1500 257° West  Level FlightAware Approximate
Wed 09:52:00 AM 44.9140 -97.1547 257° West  Level Estimated

Login

Don't have an account? Register now (free) for customized features, flight alerts, and more!